Time;durP1;ratioP1;P1;durP2;ratioP2;P2;SDS_P1;SDS_P2;PMS_P1;PMS_P2;Temp;Humidity;BMP_temperature;BMP_pressure;BME280_temperature;BME280_humidity;BME280_pressure;Samples;Min_cycle;Max_cycle;Signal;HPM_P1;HPM_P2
2020/12/10 00:01:49;;;;;;;33.63;17.10;;;7.00;75.00;;;;;;5025748;28;20032;-66
2020/12/10 00:04:16;;;;;;;28.47;16.40;;;6.80;75.00;;;;;;5028763;28;20093;-66
2020/12/10 00:06:42;;;;;;;28.50;15.30;;;6.70;75.20;;;;;;5030880;28;20029;-66
2020/12/10 00:09:08;;;;;;;27.07;15.37;;;6.70;75.60;;;;;;5028729;28;20048;-66
2020/12/10 00:11:34;;;;;;;25.00;13.67;;;6.60;75.70;;;;;;5035773;28;20445;-66
2020/12/10 00:14:01;;;;;;;26.87;14.10;;;6.50;75.70;;;;;;5009996;28;20371;-66
2020/12/10 00:16:26;;;;;;;29.07;14.80;;;6.50;75.70;;;;;;5023172;28;20025;-66
2020/12/10 00:18:52;;;;;;;26.80;15.00;;;6.50;75.70;;;;;;5018898;28;20040;-66
2020/12/10 00:21:23;;;;;;;25.30;14.07;;;6.50;75.70;;;;;;5030467;28;20034;-66
2020/12/10 00:23:49;;;;;;;29.00;16.07;;;6.50;75.50;;;;;;5012135;28;20169;-66
2020/12/10 00:26:15;;;;;;;26.17;14.77;;;6.50;75.50;;;;;;5020775;28;20119;-66
2020/12/10 00:28:41;;;;;;;29.47;16.90;;;6.50;75.50;;;;;;5030427;28;20037;-66
2020/12/10 00:31:07;;;;;;;31.13;16.00;;;6.40;75.40;;;;;;5024012;28;20063;-66
2020/12/10 00:33:33;;;;;;;28.73;15.23;;;6.40;75.40;;;;;;5017534;28;20602;-66
2020/12/10 00:35:58;;;;;;;26.13;14.37;;;6.50;75.30;;;;;;5019257;28;20038;-66
2020/12/10 00:38:24;;;;;;;28.40;13.67;;;6.50;75.20;;;;;;5013600;28;20056;-66
2020/12/10 00:40:50;;;;;;;30.00;16.03;;;6.50;75.20;;;;;;5017572;28;20423;-66
2020/12/10 00:43:15;;;;;;;32.43;17.70;;;6.50;75.10;;;;;;5024465;28;20061;-66
2020/12/10 00:45:41;;;;;;;26.47;14.70;;;6.50;75.20;;;;;;5022748;28;20037;-66
2020/12/10 00:48:06;;;;;;;28.83;16.23;;;6.40;75.20;;;;;;5017586;28;20049;-66
2020/12/10 00:50:32;;;;;;;28.07;16.03;;;6.40;75.10;;;;;;5020406;28;20076;-66
2020/12/10 00:52:58;;;;;;;31.87;16.03;;;6.40;75.10;;;;;;5029230;28;20485;-67
2020/12/10 00:55:23;;;;;;;28.43;15.70;;;6.30;75.20;;;;;;5015140;28;20045;-66
2020/12/10 00:57:49;;;;;;;31.43;16.23;;;6.20;75.30;;;;;;5013243;28;20492;-66
2020/12/10 01:00:17;;;;;;;32.67;17.30;;;6.10;75.30;;;;;;5014346;28;20065;-66
2020/12/10 01:02:43;;;;;;;31.20;16.97;;;6.10;75.30;;;;;;5025633;28;20090;-66
2020/12/10 01:05:09;;;;;;;26.73;14.97;;;6.00;75.30;;;;;;5021981;28;20170;-66
2020/12/10 01:07:34;;;;;;;30.27;16.80;;;6.10;75.20;;;;;;5020815;28;20438;-66
2020/12/10 01:10:02;;;;;;;29.63;15.70;;;6.20;75.10;;;;;;5018084;28;20105;-66
2020/12/10 01:12:28;;;;;;;27.97;15.73;;;6.20;74.90;;;;;;5012819;28;20041;-66
2020/12/10 01:14:53;;;;;;;24.73;15.20;;;6.20;74.70;;;;;;5016142;28;20109;-66
2020/12/10 01:17:19;;;;;;;24.60;14.43;;;6.20;74.60;;;;;;5018975;28;20338;-66
2020/12/10 01:19:45;;;;;;;25.97;14.20;;;6.30;74.50;;;;;;5020378;28;20044;-66
2020/12/10 01:22:10;;;;;;;30.30;16.07;;;6.30;74.50;;;;;;5027189;28;20029;-65
2020/12/10 01:24:36;;;;;;;29.47;15.30;;;6.30;74.50;;;;;;5027928;28;20038;-66
2020/12/10 01:27:02;;;;;;;28.97;15.90;;;6.30;74.40;;;;;;5012813;28;20593;-66
2020/12/10 01:29:27;;;;;;;31.20;17.07;;;6.20;74.50;;;;;;5010323;28;20034;-66
2020/12/10 01:31:53;;;;;;;30.53;17.17;;;6.10;74.70;;;;;;5013643;28;20029;-66
2020/12/10 01:34:19;;;;;;;34.67;19.20;;;6.00;74.90;;;;;;5018657;28;20057;-66
2020/12/10 01:36:45;;;;;;;31.80;16.60;;;6.00;75.10;;;;;;5027692;28;20045;-66
2020/12/10 01:39:11;;;;;;;31.23;17.77;;;5.90;75.30;;;;;;5016398;28;20511;-66
2020/12/10 01:41:37;;;;;;;32.60;18.10;;;5.90;75.40;;;;;;5022211;28;20092;-66
2020/12/10 01:44:08;;;;;;;36.60;19.37;;;5.80;75.40;;;;;;5017077;28;20056;-66
2020/12/10 01:46:35;;;;;;;31.50;16.27;;;5.80;75.60;;;;;;5015126;28;20041;-66
2020/12/10 01:49:05;;;;;;;37.17;19.60;;;5.70;75.60;;;;;;5016230;28;20034;-66
2020/12/10 01:51:32;;;;;;;33.10;16.53;;;5.70;75.70;;;;;;5016237;28;20026;-66
2020/12/10 01:54:02;;;;;;;34.07;17.23;;;5.70;75.70;;;;;;5013453;28;20040;-66
2020/12/10 01:56:28;;;;;;;34.97;18.33;;;5.60;75.60;;;;;;5021458;28;20048;-66
2020/12/10 01:58:59;;;;;;;33.37;19.03;;;5.50;75.50;;;;;;5014811;28;20037;-66
2020/12/10 02:01:27;;;;;;;35.57;18.43;;;5.40;75.50;;;;;;5023695;28;20026;-66
2020/12/10 02:03:53;;;;;;;30.50;17.20;;;5.40;75.60;;;;;;5015884;28;20044;-66
2020/12/10 02:06:19;;;;;;;35.57;18.70;;;5.40;75.40;;;;;;5016031;28;20041;-66
2020/12/10 02:08:44;;;;;;;37.07;19.43;;;5.30;75.40;;;;;;5009737;28;20048;-66
2020/12/10 02:11:11;;;;;;;32.27;17.73;;;5.30;75.50;;;;;;5008941;28;20662;-66
2020/12/10 02:13:37;;;;;;;33.30;18.33;;;5.30;75.40;;;;;;5018230;28;20044;-66
2020/12/10 02:16:03;;;;;;;37.17;18.53;;;5.30;75.30;;;;;;5021350;28;20033;-66
2020/12/10 02:18:29;;;;;;;29.37;16.57;;;5.30;75.20;;;;;;5031442;28;20040;-66
2020/12/10 02:20:55;;;;;;;31.17;17.83;;;5.30;75.20;;;;;;5032286;28;20029;-66
2020/12/10 02:23:21;;;;;;;33.67;18.27;;;5.20;75.10;;;;;;5015297;28;20030;-66
2020/12/10 02:25:47;;;;;;;33.53;18.67;;;5.20;75.20;;;;;;5024347;28;20073;-65
2020/12/10 02:28:16;;;;;;;37.40;18.10;;;5.20;75.10;;;;;;5012412;28;20033;-67
2020/12/10 02:30:44;;;;;;;33.60;17.43;;;5.20;75.10;;;;;;5027476;28;20037;-66
2020/12/10 02:33:10;;;;;;;36.37;18.77;;;5.10;75.20;;;;;;5027577;28;20566;-66
2020/12/10 02:35:38;;;;;;;29.10;15.97;;;5.10;75.20;;;;;;5028107;28;20521;-66
2020/12/10 02:38:06;;;;;;;29.13;16.67;;;5.10;75.20;;;;;;5025182;28;20434;-66
2020/12/10 02:40:41;;;;;;;33.73;18.10;;;5.10;75.10;;;;;;5023517;28;20021;-66
2020/12/10 02:43:10;;;;;;;36.50;18.53;;;5.10;75.00;;;;;;5017270;28;20049;-66
2020/12/10 02:45:38;;;;;;;32.20;17.10;;;5.10;75.10;;;;;;5023493;28;20096;-66
2020/12/10 02:48:04;;;;;;;38.40;19.10;;;5.00;75.20;;;;;;5013236;28;20064;-66
2020/12/10 02:50:30;;;;;;;33.03;17.53;;;5.00;75.40;;;;;;5017129;28;20033;-66
2020/12/10 02:52:55;;;;;;;38.00;20.13;;;4.90;75.40;;;;;;5022245;28;20030;-66
2020/12/10 02:55:21;;;;;;;42.40;19.67;;;4.90;75.40;;;;;;5023449;28;20072;-66
2020/12/10 02:57:47;;;;;;;39.73;20.27;;;4.80;75.40;;;;;;5029785;28;20133;-66
2020/12/10 03:00:12;;;;;;;36.53;19.20;;;4.80;75.50;;;;;;5021119;28;20375;-66
2020/12/10 03:02:38;;;;;;;36.87;21.67;;;4.80;75.50;;;;;;5020935;28;20037;-66
2020/12/10 03:05:07;;;;;;;38.77;20.90;;;4.80;75.60;;;;;;4994910;28;20053;-66
2020/12/10 03:07:34;;;;;;;40.10;20.63;;;4.70;75.50;;;;;;5026926;28;20499;-66
2020/12/10 03:10:01;;;;;;;33.87;19.43;;;4.70;75.50;;;;;;5022148;28;20021;-66
2020/12/10 03:12:26;;;;;;;39.97;20.90;;;4.70;75.50;;;;;;5040902;28;20034;-66
2020/12/10 03:14:52;;;;;;;39.00;18.83;;;4.70;75.50;;;;;;5005076;28;20513;-66
2020/12/10 03:17:18;;;;;;;40.43;20.20;;;4.60;75.60;;;;;;5012754;28;20137;-66
2020/12/10 03:19:43;;;;;;;35.80;17.50;;;4.60;75.70;;;;;;5018141;28;20038;-66
2020/12/10 03:22:13;;;;;;;34.63;19.37;;;4.60;75.60;;;;;;5023051;28;20108;-67
2020/12/10 03:24:39;;;;;;;36.97;18.27;;;4.60;75.40;;;;;;5027819;28;20131;-66
2020/12/10 03:27:05;;;;;;;36.63;18.07;;;4.60;75.40;;;;;;5023554;28;20836;-67
2020/12/10 03:29:31;;;;;;;27.73;16.83;;;4.60;75.40;;;;;;5025634;28;20041;-66
2020/12/10 03:31:56;;;;;;;34.13;18.43;;;4.60;75.40;;;;;;5020238;28;20048;-67
2020/12/10 03:34:22;;;;;;;32.20;17.83;;;4.60;75.30;;;;;;5026022;28;20045;-67
2020/12/10 03:36:50;;;;;;;35.07;19.00;;;4.60;75.20;;;;;;5018726;28;20029;-66
2020/12/10 03:39:21;;;;;;;29.47;17.27;;;4.60;75.00;;;;;;5027075;28;20030;-66
2020/12/10 03:41:48;;;;;;;32.40;17.40;;;4.70;74.80;;;;;;5020369;28;20021;-67
2020/12/10 03:44:16;;;;;;;32.90;16.80;;;4.70;74.70;;;;;;5019479;28;20033;-67
2020/12/10 03:46:42;;;;;;;36.20;17.10;;;4.70;74.70;;;;;;4999895;28;20662;-67
2020/12/10 03:49:09;;;;;;;33.20;16.27;;;4.60;74.70;;;;;;5025890;28;20025;-67
2020/12/10 03:51:35;;;;;;;32.50;17.03;;;4.60;74.70;;;;;;5026981;28;20045;-67
2020/12/10 03:54:01;;;;;;;32.13;16.63;;;4.60;74.70;;;;;;5006425;28;20479;-67
2020/12/10 03:56:27;;;;;;;35.13;18.20;;;4.60;74.80;;;;;;5012330;28;20499;-68
2020/12/10 03:58:52;;;;;;;33.10;17.83;;;4.50;74.80;;;;;;5022970;28;20108;-67
2020/12/10 04:01:18;;;;;;;31.83;17.07;;;4.50;74.80;;;;;;5011939;28;20037;-67
2020/12/10 04:03:44;;;;;;;33.03;16.03;;;4.50;74.80;;;;;;5022783;28;20036;-67
2020/12/10 04:06:10;;;;;;;33.73;18.23;;;4.50;74.80;;;;;;5015161;28;20121;-67
2020/12/10 04:08:37;;;;;;;42.10;21.10;;;4.50;74.80;;;;;;5024459;28;20200;-67
2020/12/10 04:11:04;;;;;;;32.20;17.80;;;4.50;74.80;;;;;;5023240;28;20041;-67
2020/12/10 04:13:29;;;;;;;36.50;19.93;;;4.50;74.80;;;;;;5029107;28;20036;-67
2020/12/10 04:15:55;;;;;;;39.70;18.93;;;4.50;74.60;;;;;;5017659;28;20487;-67
2020/12/10 04:18:21;;;;;;;38.23;20.17;;;4.50;74.70;;;;;;5011691;28;20431;-67
2020/12/10 04:20:46;;;;;;;37.73;19.93;;;4.40;74.70;;;;;;5021740;28;20344;-67
2020/12/10 04:23:12;;;;;;;37.47;18.73;;;4.40;74.90;;;;;;5028564;28;20116;-67
2020/12/10 04:25:37;;;;;;;38.47;20.10;;;4.40;75.00;;;;;;5016688;28;20132;-66
2020/12/10 04:28:03;;;;;;;38.43;21.13;;;4.40;75.10;;;;;;5009047;28;20038;-67
2020/12/10 04:30:29;;;;;;;40.80;20.70;;;4.40;75.10;;;;;;5016172;28;20696;-67
2020/12/10 04:32:54;;;;;;;39.37;20.53;;;4.40;75.10;;;;;;5021446;28;20044;-67
2020/12/10 04:35:21;;;;;;;40.87;20.53;;;4.40;75.10;;;;;;5009265;28;20322;-67
2020/12/10 04:37:47;;;;;;;40.27;20.77;;;4.40;75.10;;;;;;5011716;28;20034;-67
2020/12/10 04:40:13;;;;;;;38.50;19.23;;;4.40;75.00;;;;;;5010009;28;20030;-67
2020/12/10 04:42:43;;;;;;;43.23;23.17;;;4.30;75.00;;;;;;5023644;28;20124;-67
2020/12/10 04:45:09;;;;;;;41.70;22.03;;;4.30;75.10;;;;;;5013008;28;20277;-67
2020/12/10 04:47:36;;;;;;;37.90;19.37;;;4.30;75.20;;;;;;5022510;28;20429;-67
2020/12/10 04:50:04;;;;;;;35.80;18.37;;;4.30;75.20;;;;;;5016216;28;20030;-67
2020/12/10 04:52:32;;;;;;;41.30;21.37;;;4.20;75.20;;;;;;5020660;28;20022;-66
2020/12/10 04:54:58;;;;;;;39.23;22.10;;;4.30;75.20;;;;;;5021047;28;20056;-66
2020/12/10 04:57:29;;;;;;;36.13;20.73;;;4.20;75.10;;;;;;5027609;28;20055;-66
2020/12/10 04:59:55;;;;;;;37.47;20.10;;;4.30;75.20;;;;;;5025747;28;20030;-67
2020/12/10 05:02:20;;;;;;;38.70;20.47;;;4.20;75.00;;;;;;5018003;28;20034;-67
2020/12/10 05:04:46;;;;;;;42.03;20.83;;;4.20;75.00;;;;;;5011282;28;20064;-66
2020/12/10 05:07:13;;;;;;;39.73;20.60;;;4.20;75.00;;;;;;5017361;28;20370;-66
2020/12/10 05:09:38;;;;;;;38.17;19.20;;;4.20;75.00;;;;;;5014039;28;20052;-66
2020/12/10 05:12:17;;;;;;;34.90;18.73;;;4.30;75.00;;;;;;5015510;28;20030;-66
2020/12/10 05:14:46;;;;;;;40.63;20.00;;;4.30;74.90;;;;;;5027090;28;20029;-68
2020/12/10 05:17:15;;;;;;;30.77;16.90;;;4.30;74.90;;;;;;5017338;28;20061;-66
2020/12/10 05:19:41;;;;;;;40.97;21.20;;;4.20;74.90;;;;;;5027638;28;20207;-66
2020/12/10 05:22:09;;;;;;;39.17;21.13;;;4.20;74.90;;;;;;5020482;28;20141;-66
2020/12/10 05:24:35;;;;;;;37.33;19.60;;;4.20;74.90;;;;;;5028049;28;20056;-66
2020/12/10 05:27:23;;;;;;;37.53;19.90;;;4.20;75.00;;;;;;5010128;28;20055;-66
2020/12/10 05:29:50;;;;;;;41.53;21.70;;;4.10;75.00;;;;;;5023932;28;20459;-67
2020/12/10 05:32:39;;;;;;;40.00;19.90;;;4.10;75.10;;;;;;5025464;28;20040;-66
2020/12/10 05:35:36;;;;;;;37.10;20.90;;;4.10;75.20;;;;;;5011843;28;20088;-66
2020/12/10 05:38:10;;;;;;;39.67;22.13;;;4.10;75.20;;;;;;5024243;28;20130;-66
2020/12/10 05:40:37;;;;;;;38.53;21.10;;;4.10;75.20;;;;;;5016304;28;20109;-66
2020/12/10 05:43:04;;;;;;;37.83;21.83;;;4.10;75.10;;;;;;5027578;28;20096;-66
2020/12/10 05:45:30;;;;;;;37.03;15.87;;;4.10;75.20;;;;;;5029339;28;20470;-66
2020/12/10 05:47:59;;;;;;;36.97;18.40;;;4.10;75.20;;;;;;5013367;28;20130;-66
2020/12/10 05:50:27;;;;;;;38.67;20.03;;;4.10;75.20;;;;;;5028807;28;20040;-66
2020/12/10 05:52:55;;;;;;;43.07;21.93;;;4.10;75.30;;;;;;5027430;28;20046;-65
2020/12/10 05:55:21;;;;;;;40.40;21.10;;;4.00;75.40;;;;;;5032228;28;20025;-66
2020/12/10 05:57:48;;;;;;;34.30;19.03;;;4.00;75.50;;;;;;5032498;28;20033;-65
2020/12/10 06:00:14;;;;;;;35.03;19.33;;;4.00;75.50;;;;;;5018896;28;20034;-66
2020/12/10 06:02:41;;;;;;;39.77;20.80;;;3.90;75.40;;;;;;5032554;28;20095;-66
2020/12/10 06:05:09;;;;;;;40.83;20.23;;;3.90;75.40;;;;;;5027948;28;20022;-66
2020/12/10 06:07:35;;;;;;;40.07;21.70;;;3.90;75.40;;;;;;5014924;28;20025;-66
2020/12/10 06:10:02;;;;;;;41.10;21.40;;;3.90;75.50;;;;;;5030634;28;20026;-65
2020/12/10 06:12:28;;;;;;;44.33;23.40;;;3.90;75.60;;;;;;5024318;28;20095;-66
2020/12/10 06:14:56;;;;;;;36.47;18.50;;;3.80;75.70;;;;;;5041586;28;20033;-66
2020/12/10 06:17:22;;;;;;;42.00;21.23;;;3.80;75.70;;;;;;5031532;28;20030;-65
2020/12/10 06:19:48;;;;;;;36.77;20.83;;;3.80;75.70;;;;;;5020162;28;20037;-66
2020/12/10 06:22:30;;;;;;;36.70;21.07;;;3.80;75.80;;;;;;5024808;28;20116;-66
2020/12/10 06:25:23;;;;;;;43.90;23.90;;;3.80;75.90;;;;;;5013084;28;20069;-65
2020/12/10 06:27:49;;;;;;;47.20;23.83;;;3.70;76.00;;;;;;5012249;28;20041;-66
2020/12/10 06:30:17;;;;;;;39.33;22.33;;;3.70;76.10;;;;;;5012943;28;20073;-66
2020/12/10 06:32:51;;;;;;;41.97;23.60;;;3.70;76.10;;;;;;5013514;28;20049;-66
2020/12/10 06:35:26;;;;;;;35.88;18.45;;;3.70;76.20;;;;;;5013516;28;20088;-66
2020/12/10 06:37:52;;;;;;;41.43;21.93;;;3.70;76.10;;;;;;5014244;28;20097;-66
2020/12/10 06:40:34;;;;;;;37.13;19.17;;;3.70;76.10;;;;;;5027608;28;20108;-66
2020/12/10 06:43:00;;;;;;;38.33;21.30;;;3.70;76.20;;;;;;5017849;28;20038;-66
2020/12/10 06:45:37;;;;;;;40.80;21.57;;;3.60;76.20;;;;;;5014107;28;20490;-66
2020/12/10 06:48:08;;;;;;;39.13;21.10;;;3.70;76.30;;;;;;5018094;28;20434;-66
2020/12/10 06:50:37;;;;;;;38.07;21.07;;;3.70;76.30;;;;;;5012603;28;20037;-66
2020/12/10 06:53:15;;;;;;;39.90;21.23;;;3.70;76.20;;;;;;5019940;28;20032;-66
2020/12/10 06:55:56;;;;;;;42.50;20.97;;;3.60;76.20;;;;;;5022872;28;20034;-66
2020/12/10 06:58:44;;;;;;;41.37;22.20;;;3.70;76.30;;;;;;5025743;28;20026;-66
2020/12/10 07:01:38;;;;;;;42.30;21.23;;;3.70;76.20;;;;;;5021210;28;20041;-66
2020/12/10 07:07:09;;;;;;;43.37;22.77;;;3.70;76.00;;;;;;5033237;28;20041;-66
2020/12/10 07:09:54;;;;;;;;;;;3.60;76.60;;;;;;5026535;28;20029;-66
2020/12/10 07:12:28;;;;;;;40.50;23.00;;;3.70;75.90;;;;;;5024934;28;19917;-66
2020/12/10 07:15:20;;;;;;;37.57;17.73;;;3.70;75.90;;;;;;5016981;28;20465;-66
2020/12/10 07:17:50;;;;;;;41.23;20.97;;;3.70;76.00;;;;;;5030160;28;20414;-66
2020/12/10 07:20:16;;;;;;;41.60;21.60;;;3.70;76.00;;;;;;5021904;28;20502;-66
2020/12/10 07:22:42;;;;;;;38.43;19.67;;;3.70;76.00;;;;;;5014425;28;20522;-66
2020/12/10 07:25:08;;;;;;;38.50;21.93;;;3.70;75.90;;;;;;5016060;28;20029;-65
2020/12/10 07:27:34;;;;;;;40.27;20.03;;;3.80;75.80;;;;;;5025450;28;20049;-66
2020/12/10 07:30:00;;;;;;;36.17;19.73;;;3.90;75.80;;;;;;5030685;28;20164;-66
2020/12/10 07:32:26;;;;;;;43.13;21.43;;;3.90;75.60;;;;;;5014515;28;20045;-65
2020/12/10 07:34:51;;;;;;;35.73;18.43;;;3.90;75.50;;;;;;5017447;28;20305;-66
2020/12/10 07:37:24;;;;;;;37.73;19.60;;;3.90;75.30;;;;;;5030400;28;20030;-65
2020/12/10 07:39:50;;;;;;;41.05;20.98;;;3.90;75.20;;;;;;5026203;28;20120;-65
2020/12/10 07:42:19;;;;;;;35.90;17.77;;;3.90;75.30;;;;;;5012544;28;20155;-65
2020/12/10 07:44:45;;;;;;;37.27;19.73;;;4.00;75.40;;;;;;5020207;28;20030;-65
2020/12/10 07:47:15;;;;;;;33.80;19.20;;;3.90;75.40;;;;;;5023355;28;20045;-65
2020/12/10 07:49:40;;;;;;;38.27;20.60;;;3.90;75.40;;;;;;5021879;28;20029;-65
2020/12/10 07:52:11;;;;;;;38.07;19.57;;;3.90;75.40;;;;;;5029836;28;20439;-66
2020/12/10 07:54:52;;;;;;;35.20;18.63;;;3.90;75.50;;;;;;5010503;28;20022;-65
2020/12/10 07:57:37;;;;;;;35.23;18.03;;;4.00;75.40;;;;;;5026236;28;20057;-64
2020/12/10 08:00:13;;;;;;;39.93;19.53;;;4.10;75.40;;;;;;5014394;28;20120;-65
2020/12/10 08:02:38;;;;;;;39.37;17.93;;;4.10;75.20;;;;;;5010915;28;20026;-65
2020/12/10 08:05:15;;;;;;;37.83;19.17;;;4.10;75.00;;;;;;5018762;28;20026;-65
2020/12/10 08:07:51;;;;;;;37.03;19.43;;;4.20;74.90;;;;;;5020840;28;20038;-64
2020/12/10 08:10:27;;;;;;;39.67;19.17;;;4.20;74.80;;;;;;5029068;28;20108;-64
2020/12/10 08:13:12;;;;;;;43.80;22.47;;;4.20;74.70;;;;;;5029200;28;20091;-65
2020/12/10 08:15:45;;;;;;;40.00;19.20;;;4.20;74.60;;;;;;5024329;28;20037;-66
2020/12/10 08:18:16;;;;;;;39.75;21.55;;;4.30;74.60;;;;;;5019312;28;20034;-66
2020/12/10 08:20:43;;;;;;;41.53;22.43;;;4.40;74.40;;;;;;5021118;28;20391;-66
2020/12/10 08:23:09;;;;;;;41.53;21.33;;;4.40;74.30;;;;;;5013718;28;20017;-66
2020/12/10 08:25:35;;;;;;;37.87;20.67;;;4.50;74.20;;;;;;5023885;28;20129;-66
2020/12/10 08:28:04;;;;;;;34.67;18.97;;;4.60;73.90;;;;;;5028651;28;20114;-66
2020/12/10 08:30:29;;;;;;;36.90;20.07;;;4.70;73.80;;;;;;5026553;28;20127;-66
2020/12/10 08:32:59;;;;;;;37.50;19.97;;;4.80;73.40;;;;;;5028033;28;20224;-66
2020/12/10 08:35:28;;;;;;;35.87;19.67;;;4.80;73.30;;;;;;5022086;28;20116;-66
2020/12/10 08:37:53;;;;;;;38.00;19.83;;;4.80;73.10;;;;;;5027559;28;20026;-67
2020/12/10 08:40:27;;;;;;;39.03;19.50;;;5.10;73.00;;;;;;5028812;28;20482;-67
2020/12/10 08:42:53;;;;;;;37.45;20.95;;;5.50;72.40;;;;;;5023244;28;20380;-66
2020/12/10 08:45:33;;;;;;;31.73;18.03;;;5.90;71.20;;;;;;5014168;28;20045;-67
2020/12/10 08:48:01;;;;;;;37.77;20.73;;;6.50;70.00;;;;;;5009994;28;20432;-68
2020/12/10 08:50:28;;;;;;;36.17;19.50;;;7.00;69.10;;;;;;5025021;28;20042;-66
2020/12/10 08:53:08;;;;;;;37.63;19.47;;;7.30;67.60;;;;;;5026952;28;20080;-66
2020/12/10 08:55:59;;;;;;;36.93;17.80;;;7.30;66.60;;;;;;5028838;28;20033;-67
2020/12/10 08:58:28;;;;;;;34.53;19.43;;;7.20;65.60;;;;;;5029681;28;20033;-67
2020/12/10 09:00:54;;;;;;;34.70;18.77;;;7.00;65.70;;;;;;5028809;28;20033;-66
2020/12/10 09:03:23;;;;;;;34.50;19.07;;;6.80;66.00;;;;;;5020556;28;20044;-67
2020/12/10 09:05:52;;;;;;;35.83;18.93;;;6.50;66.20;;;;;;5022257;28;20113;-66
2020/12/10 09:08:19;;;;;;;34.67;18.87;;;6.10;67.00;;;;;;5024674;28;20041;-66
2020/12/10 09:10:46;;;;;;;35.40;20.00;;;5.80;67.70;;;;;;4994676;28;20887;-67
2020/12/10 09:13:33;;;;;;;37.37;18.23;;;5.70;68.50;;;;;;5027319;28;20056;-65
2020/12/10 09:15:59;;;;;;;38.43;20.93;;;5.60;68.60;;;;;;5041527;28;20049;-66
2020/12/10 09:18:25;;;;;;;37.03;19.20;;;5.50;69.00;;;;;;5030725;28;20507;-66
2020/12/10 09:20:52;;;;;;;36.57;21.27;;;5.40;69.20;;;;;;5022223;28;20395;-66
2020/12/10 09:23:18;;;;;;;37.17;20.53;;;5.30;69.50;;;;;;5018182;28;20057;-67
2020/12/10 09:25:44;;;;;;;38.13;21.47;;;5.20;69.90;;;;;;5028928;28;20080;-66
2020/12/10 09:28:09;;;;;;;38.37;20.53;;;5.10;70.10;;;;;;5016340;28;20034;-66
2020/12/10 09:30:36;;;;;;;40.40;20.90;;;5.10;70.20;;;;;;5019443;28;20084;-67
2020/12/10 09:33:04;;;;;;;37.60;19.90;;;5.00;70.30;;;;;;5022088;28;20022;-66
2020/12/10 09:35:29;;;;;;;36.73;20.97;;;4.90;70.50;;;;;;5011870;28;20084;-67
2020/12/10 09:37:55;;;;;;;41.33;23.00;;;4.90;70.90;;;;;;5019054;28;20050;-67
2020/12/10 09:40:21;;;;;;;39.57;22.53;;;5.00;71.10;;;;;;5017136;28;20060;-66
2020/12/10 09:42:49;;;;;;;39.83;21.83;;;6.90;72.00;;;;;;5018469;28;20045;-67
2020/12/10 09:45:16;;;;;;;36.63;19.70;;;5.30;70.90;;;;;;5009316;28;20038;-66
2020/12/10 09:47:46;;;;;;;41.07;22.37;;;5.40;70.60;;;;;;5019742;28;20029;-67
2020/12/10 09:50:24;;;;;;;41.43;21.93;;;5.50;70.40;;;;;;5006507;28;20523;-66
2020/12/10 09:58:03;;;;;;;35.33;19.30;;;5.80;70.00;;;;;;5029113;28;20431;-67
2020/12/10 10:00:38;;;;;;;39.53;21.87;;;5.90;69.50;;;;;;5010250;28;20030;-66
2020/12/10 10:03:07;;;;;;;35.60;19.40;;;6.00;69.20;;;;;;5019511;28;20030;-66
2020/12/10 10:05:35;;;;;;;34.23;19.33;;;6.10;69.00;;;;;;5009209;28;20034;-67
2020/12/10 10:08:02;;;;;;;38.13;20.20;;;6.10;68.70;;;;;;5027442;28;20163;-64
2020/12/10 10:10:28;;;;;;;34.93;20.00;;;6.10;68.10;;;;;;5027114;28;20038;-65
2020/12/10 10:13:01;;;;;;;;;;;6.10;68.80;;;;;;5016408;28;20033;-64
2020/12/10 10:15:27;;;;;;;38.00;20.07;;;6.00;68.50;;;;;;5018677;28;20358;-65
2020/12/10 10:17:54;;;;;;;34.00;21.27;;;6.00;68.80;;;;;;5023930;28;20110;-65
2020/12/10 10:20:21;;;;;;;38.50;21.90;;;6.00;68.70;;;;;;5026232;28;20475;-65
2020/12/10 10:22:48;;;;;;;41.07;21.27;;;5.90;68.80;;;;;;5014813;28;20494;-65
2020/12/10 10:25:14;;;;;;;40.83;21.17;;;5.90;68.90;;;;;;5013710;28;20104;-65
2020/12/10 10:28:00;;;;;;;33.97;19.90;;;5.80;69.00;;;;;;5027321;28;20356;-64
2020/12/10 10:30:30;;;;;;;35.97;19.70;;;5.80;69.00;;;;;;5027081;28;20033;-64
2020/12/10 10:32:57;;;;;;;40.20;22.37;;;5.70;69.20;;;;;;5025534;28;20022;-65
2020/12/10 10:35:27;;;;;;;39.27;21.90;;;5.70;69.40;;;;;;5020800;28;20032;-64
2020/12/10 10:38:16;;;;;;;38.43;20.67;;;5.70;69.60;;;;;;5027281;28;20077;-64
2020/12/10 10:40:41;;;;;;;35.90;21.50;;;5.80;69.70;;;;;;5028736;28;20029;-65
2020/12/10 10:43:22;;;;;;;36.80;21.07;;;5.80;69.50;;;;;;5030975;28;20124;-64
2020/12/10 10:45:47;;;;;;;39.17;22.77;;;5.80;69.30;;;;;;5030758;28;20041;-65
2020/12/10 10:48:31;;;;;;;37.47;20.05;;;5.80;69.30;;;;;;5028357;28;20125;-66
2020/12/10 10:51:00;;;;;;;35.67;20.83;;;5.90;69.40;;;;;;5027796;28;20049;-65
2020/12/10 10:53:26;;;;;;;39.03;21.83;;;5.90;69.30;;;;;;5027978;28;20069;-65
2020/12/10 10:55:52;;;;;;;36.27;21.17;;;5.80;69.40;;;;;;5024311;28;20098;-65
2020/12/10 10:58:17;;;;;;;36.93;20.57;;;5.80;69.50;;;;;;5025648;28;22301;-65
2020/12/10 11:00:47;;;;;;;36.43;19.97;;;5.90;69.70;;;;;;5014878;28;20095;-65
2020/12/10 11:03:14;;;;;;;39.83;21.17;;;5.90;69.70;;;;;;5031047;28;20029;-65
2020/12/10 11:05:40;;;;;;;36.53;21.17;;;5.90;69.70;;;;;;5020293;28;20042;-65
2020/12/10 11:08:17;;;;;;;37.57;21.00;;;5.90;69.70;;;;;;5029565;28;20121;-65
2020/12/10 11:10:50;;;;;;;44.03;22.70;;;6.00;69.70;;;;;;5029933;28;20045;-65
2020/12/10 11:13:16;;;;;;;37.20;22.05;;;5.90;69.50;;;;;;5014696;28;20125;-65
2020/12/10 11:15:41;;;;;;;37.13;21.13;;;5.90;69.60;;;;;;5013488;28;20527;-64
2020/12/10 11:18:07;;;;;;;39.70;21.47;;;5.80;69.80;;;;;;5029264;28;20113;-64
2020/12/10 11:20:36;;;;;;;40.50;22.13;;;5.80;70.00;;;;;;5011748;28;20062;-65
2020/12/10 11:23:02;;;;;;;39.17;22.13;;;5.80;70.00;;;;;;5012808;28;20104;-65
2020/12/10 11:25:30;;;;;;;38.23;21.57;;;5.80;70.00;;;;;;5026307;28;20454;-65
2020/12/10 11:27:56;;;;;;;34.93;20.70;;;5.90;69.80;;;;;;5029548;28;20045;-64
2020/12/10 11:30:22;;;;;;;38.13;20.87;;;6.00;69.90;;;;;;5029801;28;20539;-65
2020/12/10 11:32:47;;;;;;;37.60;22.13;;;5.90;69.80;;;;;;5026955;28;20120;-65
2020/12/10 11:35:13;;;;;;;34.13;19.63;;;5.80;69.90;;;;;;5026546;28;20025;-67
2020/12/10 11:37:39;;;;;;;40.03;21.80;;;5.80;70.00;;;;;;5029140;28;20410;-65
2020/12/10 11:40:04;;;;;;;39.30;20.93;;;5.80;70.20;;;;;;5000215;28;20057;-65
2020/12/10 11:42:49;;;;;;;36.57;20.00;;;5.80;70.40;;;;;;5028244;28;20037;-65
2020/12/10 11:45:15;;;;;;;34.87;18.63;;;5.70;70.50;;;;;;5028348;28;20041;-64
2020/12/10 11:48:04;;;;;;;42.50;23.67;;;5.70;70.60;;;;;;5028066;28;20026;-65
2020/12/10 11:50:34;;;;;;;36.10;21.33;;;5.80;70.70;;;;;;5011274;28;20084;-65
2020/12/10 11:53:01;;;;;;;35.47;20.23;;;7.50;71.60;;;;;;5025914;28;20033;-65
2020/12/10 11:55:33;;;;;;;40.30;21.87;;;6.00;70.50;;;;;;5023197;28;20040;-65
2020/12/10 11:57:58;;;;;;;36.23;19.73;;;6.00;70.00;;;;;;5010552;28;20033;-64
2020/12/10 12:00:24;;;;;;;42.80;21.97;;;6.10;70.10;;;;;;5014351;28;20637;-65
2020/12/10 12:02:51;;;;;;;38.77;22.33;;;6.10;70.10;;;;;;5025699;28;20060;-65
2020/12/10 12:05:19;;;;;;;38.07;21.07;;;6.20;70.00;;;;;;5027608;28;20048;-65
2020/12/10 12:07:45;;;;;;;43.13;21.80;;;6.20;70.00;;;;;;5028692;28;20040;-65
2020/12/10 12:10:27;;;;;;;35.15;20.20;;;6.10;70.00;;;;;;5024644;28;20080;-66
2020/12/10 12:12:53;;;;;;;34.90;20.00;;;6.10;70.20;;;;;;5028867;28;20062;-65
2020/12/10 12:15:19;;;;;;;39.07;20.43;;;6.10;70.20;;;;;;5025317;28;20466;-65
2020/12/10 12:17:45;;;;;;;33.93;19.17;;;6.10;70.20;;;;;;5013820;28;20361;-65
2020/12/10 12:20:18;;;;;;;34.93;18.90;;;6.20;70.20;;;;;;5023117;28;20079;-65
2020/12/10 12:22:44;;;;;;;;;;;6.10;70.60;;;;;;5028470;28;20048;-65
2020/12/10 12:25:09;;;;;;;37.73;21.07;;;6.10;69.80;;;;;;5015953;28;19917;-66
2020/12/10 12:27:41;;;;;;;35.60;20.17;;;6.10;70.00;;;;;;5009641;28;20577;-65
2020/12/10 12:30:10;;;;;;;37.57;20.83;;;6.10;70.00;;;;;;5008787;28;20050;-65
2020/12/10 12:32:36;;;;;;;41.43;22.77;;;6.10;70.10;;;;;;5020937;28;20041;-65
2020/12/10 12:35:01;;;;;;;39.53;21.63;;;6.10;69.70;;;;;;5016676;28;20030;-65
2020/12/10 12:37:47;;;;;;;41.93;20.03;;;6.10;69.90;;;;;;5016790;28;20069;-65
2020/12/10 12:40:13;;;;;;;32.63;19.00;;;6.10;69.80;;;;;;5022708;28;20428;-65
2020/12/10 12:42:40;;;;;;;42.27;22.13;;;6.20;69.70;;;;;;5009927;28;20030;-65
2020/12/10 12:45:26;;;;;;;38.70;21.63;;;6.10;69.70;;;;;;5026965;28;20168;-65
2020/12/10 12:47:56;;;;;;;39.20;22.37;;;6.10;69.80;;;;;;5015368;28;20038;-65
2020/12/10 12:50:22;;;;;;;39.07;22.17;;;6.10;69.90;;;;;;5022519;28;20467;-65
2020/12/10 12:53:08;;;;;;;41.63;24.03;;;6.10;69.60;;;;;;5015638;28;20026;-65
2020/12/10 12:55:56;;;;;;;34.67;20.13;;;6.10;69.80;;;;;;5023393;28;20042;-65